Time;durP1;ratioP1;P1;durP2;ratioP2;P2;SDS_P1;SDS_P2;PMS_P1;PMS_P2;Temp;Humidity;BMP_temperature;BMP_pressure;BME280_temperature;BME280_humidity;BME280_pressure;Samples;Min_cycle;Max_cycle;Signal;HPM_P1;HPM_P2
2022/04/01 00:00:34;;;;;;;5.93;5.32;;;;;;;4.34;65.22;100173.69;5050391;28;20044;-61
2022/04/01 00:02:59;;;;;;;6.68;5.43;;;;;;;4.34;65.80;100183.84;5050594;28;20052;-59
2022/04/01 00:05:28;;;;;;;5.93;5.32;;;;;;;4.34;66.50;100176.44;5050622;28;20059;-59
2022/04/01 00:07:53;;;;;;;5.78;5.18;;;;;;;4.32;65.52;100178.59;5037075;28;20056;-59
2022/04/01 00:10:18;;;;;;;6.07;5.30;;;;;;;4.34;65.45;100176.44;5044010;28;20037;-59
2022/04/01 00:12:46;;;;;;;5.30;4.80;;;;;;;4.29;65.85;100194.69;5049866;28;20373;-59
2022/04/01 00:15:12;;;;;;;5.50;4.97;;;;;;;4.22;65.71;100181.03;5040148;28;20033;-60
2022/04/01 00:17:39;;;;;;;4.97;4.55;;;;;;;4.18;65.94;100183.38;5050600;28;20067;-59
2022/04/01 00:20:04;;;;;;;4.75;4.35;;;;;;;4.13;66.00;100191.47;5049398;28;20610;-59
2022/04/01 00:22:30;;;;;;;5.05;4.55;;;;;;;4.13;65.86;100199.72;5049222;28;20091;-59
2022/04/01 00:24:55;;;;;;;5.07;4.68;;;;;;;4.15;66.33;100199.47;5047342;28;20032;-59
2022/04/01 00:27:20;;;;;;;5.72;4.50;;;;;;;4.12;65.38;100195.28;5046362;28;20456;-60
2022/04/01 00:29:48;;;;;;;6.53;4.28;;;;;;;3.96;65.67;100200.50;5049682;28;20033;-60
2022/04/01 00:32:13;;;;;;;4.70;4.30;;;;;;;3.88;66.74;100201.63;5050503;28;20104;-60
2022/04/01 00:34:40;;;;;;;4.35;3.97;;;;;;;3.87;66.51;100206.28;5050138;28;20124;-60
2022/04/01 00:37:05;;;;;;;4.88;4.43;;;;;;;3.81;66.92;100203.59;5048919;28;20031;-60
2022/04/01 00:39:31;;;;;;;5.05;4.53;;;;;;;3.83;67.35;100212.47;5050325;28;20029;-60
2022/04/01 00:41:58;;;;;;;4.57;4.10;;;;;;;3.86;66.26;100206.53;5045747;28;20429;-60
2022/04/01 00:44:27;;;;;;;6.38;4.40;;;;;;;3.78;66.50;100215.88;5050363;28;20104;-59
2022/04/01 00:46:56;;;;;;;4.45;4.05;;;;;;;3.76;67.36;100214.41;5053813;28;20073;-60
2022/04/01 00:49:23;;;;;;;4.35;3.95;;;;;;;3.74;66.77;100214.66;5052404;28;20140;-59
2022/04/01 00:51:50;;;;;;;5.18;4.13;;;;;;;3.76;67.27;100211.69;5053657;28;20044;-60
2022/04/01 00:54:16;;;;;;;6.25;3.80;;;;;;;3.81;66.58;100214.56;5053853;28;20055;-60
2022/04/01 00:56:42;;;;;;;6.10;4.75;;;;;;;3.80;66.47;100221.13;5050152;28;20553;-60
2022/04/01 00:59:08;;;;;;;5.28;4.20;;;;;;;3.86;66.55;100220.25;5048478;28;20037;-60
2022/04/01 01:01:34;;;;;;;4.95;4.22;;;;;;;3.78;66.73;100228.78;5057349;28;20062;-60
2022/04/01 01:04:12;;;;;;;5.57;4.70;;;;;;;3.78;66.72;100228.78;5052156;28;20051;-60
2022/04/01 01:06:41;;;;;;;5.57;4.45;;;;;;;3.82;67.10;100232.75;5053139;28;20045;-60
2022/04/01 01:09:07;;;;;;;5.53;4.45;;;;;;;3.85;66.77;100226.78;5050342;28;20564;-60
2022/04/01 01:11:36;;;;;;;5.35;4.15;;;;;;;3.85;67.00;100221.31;5052453;28;20040;-60
2022/04/01 01:14:04;;;;;;;6.70;4.43;;;;;;;3.81;66.80;100226.44;5053974;28;20029;-60
2022/04/01 01:16:29;;;;;;;4.82;3.95;;;;;;;3.85;66.96;100221.31;5053892;28;20028;-60
2022/04/01 01:19:11;;;;;;;4.90;3.83;;;;;;;3.86;66.38;100228.50;5051572;28;20044;-60
2022/04/01 01:21:38;;;;;;;4.45;3.90;;;;;;;3.93;66.34;100229.28;5048453;28;20036;-60
2022/04/01 01:24:16;;;;;;;4.25;3.85;;;;;;;3.95;66.04;100227.13;5047978;28;20660;-60
2022/04/01 01:26:49;;;;;;;4.05;3.70;;;;;;;3.97;65.87;100233.25;5051168;28;20033;-60
2022/04/01 01:29:19;;;;;;;4.15;3.63;;;;;;;3.97;66.19;100227.75;5053132;28;20029;-60
2022/04/01 01:31:45;;;;;;;5.47;3.95;;;;;;;3.96;66.18;100222.47;5051438;28;20025;-60
2022/04/01 01:34:11;;;;;;;4.82;3.65;;;;;;;3.98;65.89;100229.44;5053088;28;20468;-60
2022/04/01 01:36:36;;;;;;;4.13;3.65;;;;;;;3.97;65.40;100230.50;5053187;28;20068;-60
2022/04/01 01:39:02;;;;;;;4.57;3.72;;;;;;;3.97;66.12;100233.25;5052973;28;20025;-60
2022/04/01 01:41:27;;;;;;;5.72;4.45;;;;;;;3.99;65.62;100228.38;5051752;28;20060;-60
2022/04/01 01:43:53;;;;;;;7.22;3.97;;;;;;;3.97;66.20;100235.13;5053410;28;20039;-60
2022/04/01 01:46:18;;;;;;;4.47;3.70;;;;;;;3.94;65.70;100231.78;5052446;28;20040;-60
2022/04/01 01:48:43;;;;;;;7.38;4.30;;;;;;;3.94;66.15;100231.78;5052169;28;20191;-60
2022/04/01 01:56:39;;;;;;;5.30;4.20;;;;;;;3.95;65.64;100235.38;5053096;28;20128;-60
2022/04/01 01:59:05;;;;;;;4.18;3.65;;;;;;;3.89;65.62;100241.75;5048652;28;20730;-60
2022/04/01 02:01:30;;;;;;;4.80;4.00;;;;;;;3.87;65.67;100244.72;5049271;28;20033;-60
2022/04/01 02:03:56;;;;;;;4.93;4.00;;;;;;;3.89;65.67;100244.50;5052271;28;20041;-60
2022/04/01 02:06:22;;;;;;;4.05;3.65;;;;;;;3.87;65.60;100255.72;5052764;28;20029;-60
2022/04/01 02:08:51;;;;;;;4.30;3.90;;;;;;;3.89;66.00;100249.97;5054411;28;20127;-60
2022/04/01 02:11:17;;;;;;;6.93;4.25;;;;;;;3.82;65.39;100255.56;5052911;28;20021;-60
2022/04/01 02:13:45;;;;;;;6.35;4.00;;;;;;;3.79;66.22;100253.25;5050026;28;20036;-60
2022/04/01 02:16:10;;;;;;;5.32;3.97;;;;;;;3.75;66.26;100249.25;5049162;28;20037;-60
2022/04/01 02:18:35;;;;;;;4.72;4.00;;;;;;;3.73;65.75;100251.38;5051933;28;20045;-60
2022/04/01 02:21:02;;;;;;;4.93;3.78;;;;;;;3.78;66.14;100254.31;5051789;28;20025;-61
2022/04/01 02:23:27;;;;;;;4.35;3.80;;;;;;;3.80;66.07;100257.66;5051104;28;20143;-60
2022/04/01 02:25:52;;;;;;;4.30;3.90;;;;;;;3.78;65.60;100254.31;5057518;28;20465;-60
2022/04/01 02:28:22;;;;;;;5.15;4.25;;;;;;;3.76;65.96;100269.31;5051389;28;20033;-60
2022/04/01 02:30:47;;;;;;;4.40;4.07;;;;;;;3.75;65.60;100268.47;5044792;28;20029;-60
2022/04/01 02:33:14;;;;;;;5.07;4.32;;;;;;;3.73;65.92;100267.00;5051754;28;20048;-60
2022/04/01 02:35:39;;;;;;;4.55;3.97;;;;;;;3.73;65.72;100276.09;5047081;28;20037;-60
2022/04/01 02:38:05;;;;;;;5.53;4.38;;;;;;;3.64;66.06;100272.78;5045277;28;20032;-60
2022/04/01 02:40:30;;;;;;;5.00;3.88;;;;;;;3.63;66.43;100273.00;5036751;28;20033;-60
2022/04/01 02:42:58;;;;;;;4.93;4.18;;;;;;;3.68;65.94;100282.25;5051502;28;20086;-60
2022/04/01 02:45:29;;;;;;;4.65;4.07;;;;;;;3.69;66.39;100277.59;5052184;28;20488;-60
2022/04/01 02:47:55;;;;;;;4.47;4.07;;;;;;;3.68;65.65;100282.25;5041422;28;20036;-60
2022/04/01 02:50:20;;;;;;;4.72;3.90;;;;;;;3.57;65.99;100287.59;5048188;28;20287;-60
2022/04/01 02:52:45;;;;;;;4.75;4.07;;;;;;;3.49;66.54;100290.59;5051941;28;20464;-60
2022/04/01 02:55:14;;;;;;;4.00;3.70;;;;;;;3.55;66.51;100293.31;5051489;28;20021;-60
2022/04/01 02:57:39;;;;;;;4.75;4.03;;;;;;;3.58;66.31;100297.53;5049194;28;20036;-60
2022/04/01 03:00:09;;;;;;;4.63;4.15;;;;;;;3.52;67.07;100296.50;5051608;28;20039;-60
2022/04/01 03:02:38;;;;;;;5.10;4.70;;;;;;;3.48;66.81;100299.91;5044197;28;20495;-60
2022/04/01 03:05:04;;;;;;;5.47;4.03;;;;;;;3.45;66.81;100303.91;5016761;28;20034;-60
2022/04/01 03:07:30;;;;;;;4.60;4.20;;;;;;;3.48;67.44;100308.97;5045261;28;20056;-60
2022/04/01 03:09:55;;;;;;;5.07;4.57;;;;;;;3.50;66.17;100306.88;5038786;28;20477;-60
2022/04/01 03:12:20;;;;;;;5.03;4.53;;;;;;;3.53;66.50;100305.56;5040062;28;20383;-60
2022/04/01 03:14:48;;;;;;;4.93;4.53;;;;;;;3.55;66.15;100312.53;5051958;28;20075;-60
2022/04/01 03:17:14;;;;;;;5.53;5.03;;;;;;;3.57;65.95;100313.13;5038302;28;20365;-60
2022/04/01 03:19:39;;;;;;;5.45;4.95;;;;;;;3.56;66.15;100311.47;5041123;28;20036;-60
2022/04/01 03:22:05;;;;;;;5.53;5.03;;;;;;;3.56;66.01;100313.38;5046649;28;20052;-60
2022/04/01 03:24:31;;;;;;;6.00;5.50;;;;;;;3.53;66.41;100311.88;5033244;28;20078;-60
2022/04/01 03:26:56;;;;;;;5.80;5.30;;;;;;;3.55;66.34;100323.50;5031318;28;20033;-60
2022/04/01 03:29:22;;;;;;;6.20;5.60;;;;;;;3.51;66.09;100319.53;5038546;28;20040;-60
2022/04/01 03:31:47;;;;;;;5.93;5.35;;;;;;;3.48;66.47;100328.19;5040227;28;20055;-61
2022/04/01 03:34:13;;;;;;;7.45;6.07;;;;;;;3.47;66.60;100326.50;5031225;28;20033;-60
2022/04/01 03:36:39;;;;;;;6.70;5.78;;;;;;;3.41;66.11;100333.69;5026076;28;20041;-60
2022/04/01 03:39:04;;;;;;;5.78;5.28;;;;;;;3.32;66.76;100328.69;5036635;28;20460;-60
2022/04/01 03:41:30;;;;;;;6.72;6.10;;;;;;;3.29;67.14;100337.34;5042006;28;20041;-60
2022/04/01 03:43:56;;;;;;;6.40;5.80;;;;;;;3.31;66.54;100340.75;5038292;28;20469;-60
2022/04/01 03:46:26;;;;;;;6.00;5.50;;;;;;;3.31;66.62;100341.56;5036512;28;20041;-61
2022/04/01 03:48:59;;;;;;;5.75;5.25;;;;;;;3.34;67.24;100345.75;5032016;28;20422;-60
2022/04/01 03:51:25;;;;;;;5.70;5.20;;;;;;;3.28;66.68;100346.66;5030939;28;20053;-60
2022/04/01 03:54:02;;;;;;;6.55;5.85;;;;;;;3.27;67.18;100347.72;5038310;28;20072;-60
2022/04/01 03:56:32;;;;;;;6.53;5.60;;;;;;;3.26;67.70;100344.09;5023320;28;20026;-60
2022/04/01 03:59:04;;;;;;;5.90;5.30;;;;;;;3.30;66.95;100350.00;5036352;28;20041;-61
2022/04/01 04:01:29;;;;;;;5.82;5.32;;;;;;;3.31;67.12;100347.06;5047191;28;20166;-60
2022/04/01 04:04:00;;;;;;;5.60;5.10;;;;;;;3.33;67.19;100355.91;5047880;28;20075;-60
2022/04/01 04:06:26;;;;;;;6.43;5.28;;;;;;;3.35;66.92;100347.47;5048799;28;20539;-60
2022/04/01 04:08:57;;;;;;;6.05;5.53;;;;;;;3.31;66.95;100366.25;5050559;28;20074;-60
2022/04/01 04:11:26;;;;;;;5.63;5.13;;;;;;;3.32;67.49;100364.34;5050264;28;20032;-60
2022/04/01 04:13:53;;;;;;;5.45;5.05;;;;;;;3.20;67.65;100367.78;5049681;28;20033;-60
2022/04/01 04:16:25;;;;;;;5.50;5.00;;;;;;;3.18;68.13;100371.78;5051943;28;20420;-60
2022/04/01 04:19:10;;;;;;;5.97;5.30;;;;;;;3.20;66.97;100377.91;5039407;28;20365;-61
2022/04/01 04:21:50;;;;;;;5.68;5.18;;;;;;;3.19;67.53;100382.56;5049900;28;20017;-60
2022/04/01 04:24:25;;;;;;;5.88;5.15;;;;;;;3.19;67.76;100388.03;5054615;28;20445;-60
2022/04/01 04:26:51;;;;;;;6.10;5.50;;;;;;;3.24;67.90;100389.28;5052197;28;20472;-60
2022/04/01 04:29:18;;;;;;;5.75;5.10;;;;;;;3.26;67.72;100392.63;5058981;28;20070;-60
2022/04/01 04:31:52;;;;;;;5.60;5.10;;;;;;;3.27;66.64;100405.31;5053498;28;20747;-60
2022/04/01 04:34:23;;;;;;;5.53;5.05;;;;;;;3.21;66.89;100401.53;5053529;28;20075;-61
2022/04/01 04:36:51;;;;;;;5.80;5.30;;;;;;;3.23;67.06;100398.59;5053706;28;20021;-60
2022/04/01 04:39:43;;;;;;;5.68;5.05;;;;;;;3.29;66.61;100412.25;5042542;28;20033;-60
2022/04/01 04:42:09;;;;;;;6.45;5.10;;;;;;;3.19;67.14;100406.41;5051325;28;20102;-60
2022/04/01 04:44:35;;;;;;;5.97;5.40;;;;;;;3.19;67.46;100412.72;5053850;28;20485;-60
2022/04/01 04:47:07;;;;;;;6.32;5.72;;;;;;;3.22;67.21;100414.16;5053618;28;20100;-60
2022/04/01 04:49:32;;;;;;;6.13;5.10;;;;;;;3.26;67.23;100431.88;5053020;28;20028;-60
2022/04/01 04:51:59;;;;;;;6.00;5.40;;;;;;;3.20;67.32;100428.09;5053405;28;20067;-61
2022/04/01 04:54:25;;;;;;;6.43;5.82;;;;;;;3.18;66.34;100435.72;5054141;28;20033;-60
2022/04/01 04:56:52;;;;;;;6.53;5.85;;;;;;;3.20;67.67;100436.34;5041044;28;20112;-60
2022/04/01 04:59:19;;;;;;;7.47;5.72;;;;;;;3.19;66.70;100444.78;5045999;28;20033;-60
2022/04/01 05:01:56;;;;;;;6.47;5.68;;;;;;;3.22;66.60;100451.72;5053608;28;20029;-60
2022/04/01 05:04:47;;;;;;;6.10;5.50;;;;;;;3.20;66.12;100455.53;5033702;28;20061;-60
2022/04/01 05:07:26;;;;;;;6.43;5.88;;;;;;;3.17;65.99;100455.97;5052736;28;20499;-60
2022/04/01 05:10:07;;;;;;;6.10;5.43;;;;;;;3.10;66.55;100466.09;5053348;28;20028;-60
2022/04/01 05:12:58;;;;;;;6.38;5.78;;;;;;;3.13;66.03;100475.78;5053826;28;20052;-60
2022/04/01 05:15:30;;;;;;;6.78;5.18;;;;;;;3.10;66.46;100488.03;5052469;28;20056;-60
2022/04/01 05:18:08;;;;;;;5.70;5.20;;;;;;;3.14;66.05;100477.47;5046938;28;20041;-60
2022/04/01 05:20:36;;;;;;;6.78;5.47;;;;;;;3.16;66.03;100489.94;5052723;28;20039;-61
2022/04/01 05:23:20;;;;;;;5.88;5.38;;;;;;;3.13;66.08;100478.53;5052576;28;20028;-61
2022/04/01 05:25:54;;;;;;;5.72;5.10;;;;;;;3.06;65.54;100484.03;5052766;28;20491;-61
2022/04/01 05:28:22;;;;;;;6.63;5.93;;;;;;;3.02;66.14;100487.41;5051781;28;20037;-61
2022/04/01 05:30:56;;;;;;;6.25;5.57;;;;;;;3.01;65.75;100488.47;5051144;28;20889;-60
2022/04/01 05:33:26;;;;;;;6.38;5.78;;;;;;;2.87;66.37;100488.50;5052753;28;20021;-60
2022/04/01 05:35:53;;;;;;;5.97;5.38;;;;;;;2.92;66.08;100493.34;5053027;28;20033;-60
2022/04/01 05:38:27;;;;;;;6.32;5.72;;;;;;;2.98;66.19;100499.84;5052160;28;20373;-60
2022/04/01 05:40:55;;;;;;;6.72;5.60;;;;;;;2.94;66.06;100508.50;5059188;28;20425;-61
2022/04/01 05:43:21;;;;;;;6.72;5.68;;;;;;;2.99;65.62;100507.88;5048631;28;20488;-60
2022/04/01 05:45:50;;;;;;;6.20;5.60;;;;;;;2.97;66.39;100511.88;5049316;28;20029;-60
2022/04/01 05:48:18;;;;;;;6.40;5.80;;;;;;;2.95;65.76;100520.34;5045742;28;20029;-60
2022/04/01 05:50:43;;;;;;;6.47;5.88;;;;;;;2.99;66.12;100523.47;5050250;28;20044;-61
2022/04/01 05:53:11;;;;;;;6.35;5.63;;;;;;;3.03;65.78;100533.81;5048961;28;20431;-60
2022/04/01 05:55:37;;;;;;;8.75;5.55;;;;;;;3.05;65.01;100528.97;5047955;28;20025;-60
2022/04/01 05:58:05;;;;;;;6.30;5.70;;;;;;;3.02;64.70;100537.59;5056460;28;20029;-60
2022/04/01 06:00:36;;;;;;;6.20;5.60;;;;;;;2.96;65.20;100543.94;5045093;28;20033;-60
2022/04/01 06:03:38;;;;;;;6.88;5.82;;;;;;;2.98;65.16;100550.03;5039638;28;20053;-60
2022/04/01 06:06:12;;;;;;;6.47;5.88;;;;;;;2.95;65.31;100554.06;5044783;28;20048;-59
2022/04/01 06:08:44;;;;;;;5.88;5.32;;;;;;;2.91;64.54;100554.72;5048823;28;20029;-59
2022/04/01 06:11:30;;;;;;;6.68;5.47;;;;;;;2.91;65.87;100565.69;5048230;28;20416;-59
2022/04/01 06:14:27;;;;;;;6.35;5.75;;;;;;;2.99;65.08;100568.22;5046789;28;20032;-60
2022/04/01 06:17:21;;;;;;;6.13;5.50;;;;;;;3.00;65.01;100574.53;5045770;28;20036;-60
2022/04/01 06:19:47;;;;;;;5.63;5.10;;;;;;;2.98;65.13;100584.84;5013096;28;20381;-60
2022/04/01 06:22:20;;;;;;;6.20;5.30;;;;;;;2.93;64.53;100591.81;5048473;28;20036;-59
2022/04/01 06:25:10;;;;;;;5.82;5.22;;;;;;;2.95;65.34;100594.34;5047172;28;20392;-61
2022/04/01 06:27:44;;;;;;;6.35;5.47;;;;;;;2.92;65.42;100598.34;5038815;28;20086;-61
2022/04/01 06:30:13;;;;;;;5.70;5.10;;;;;;;2.91;64.45;100598.56;5045445;28;20047;-61
2022/04/01 06:33:06;;;;;;;5.85;5.28;;;;;;;2.89;65.11;100604.25;5040645;28;20024;-61
2022/04/01 06:35:48;;;;;;;5.80;5.00;;;;;;;2.84;65.67;100614.16;5040770;28;20459;-61
2022/04/01 06:38:24;;;;;;;5.63;4.97;;;;;;;2.87;65.37;100624.69;5046493;28;20445;-61
2022/04/01 06:40:58;;;;;;;5.75;5.05;;;;;;;2.90;65.52;100627.84;5042346;28;20060;-61
2022/04/01 06:43:25;;;;;;;6.00;5.07;;;;;;;2.92;64.55;100624.94;5044125;28;20051;-61
2022/04/01 06:45:50;;;;;;;5.85;5.35;;;;;;;2.94;64.95;100631.03;5045263;28;20037;-61
2022/04/01 06:48:15;;;;;;;6.40;5.20;;;;;;;2.99;64.86;100638.63;5044308;28;20066;-61
2022/04/01 06:50:49;;;;;;;6.15;5.30;;;;;;;3.00;64.92;100641.19;5038041;28;20037;-61
2022/04/01 06:53:19;;;;;;;7.28;5.10;;;;;;;2.97;64.11;100640.75;5042480;28;20039;-61
2022/04/01 06:55:45;;;;;;;6.85;4.68;;;;;;;2.95;63.58;100644.53;5040111;28;20028;-60
2022/04/01 06:58:11;;;;;;;7.70;4.70;;;;;;;2.96;64.12;100656.34;5038259;28;20024;-61
2022/04/01 07:00:41;;;;;;;5.68;4.57;;;;;;;2.95;64.16;100663.75;5041140;28;20037;-62
2022/04/01 07:03:07;;;;;;;6.78;5.10;;;;;;;2.81;63.55;100659.25;5039783;28;20055;-61
2022/04/01 07:05:35;;;;;;;7.22;5.00;;;;;;;2.82;64.60;100657.38;5038327;28;20032;-61
2022/04/01 07:08:04;;;;;;;9.52;4.82;;;;;;;2.83;64.83;100659.03;5047531;28;20475;-61
2022/04/01 07:10:30;;;;;;;5.88;4.28;;;;;;;2.83;64.14;100656.31;5043212;28;20610;-60
2022/04/01 07:12:59;;;;;;;7.57;4.57;;;;;;;2.87;64.26;100665.81;5047162;28;20025;-62
2022/04/01 07:15:25;;;;;;;5.78;4.63;;;;;;;2.86;64.41;100666.88;5043977;28;20033;-60
2022/04/01 07:17:51;;;;;;;6.47;4.72;;;;;;;2.83;64.06;100665.41;5045953;28;20372;-60
2022/04/01 07:20:16;;;;;;;8.15;4.78;;;;;;;2.86;64.39;100666.88;5046793;28;20486;-61
2022/04/01 07:22:44;;;;;;;5.40;4.20;;;;;;;2.92;64.67;100671.53;5044571;28;20091;-61
2022/04/01 07:25:10;;;;;;;6.07;4.57;;;;;;;2.92;64.75;100671.53;5046453;28;20033;-61
2022/04/01 07:27:36;;;;;;;5.30;4.65;;;;;;;2.93;64.81;100679.53;5045280;28;20621;-61
2022/04/01 07:30:03;;;;;;;5.60;4.90;;;;;;;3.00;64.06;100681.47;5049546;28;20077;-61
2022/04/01 07:32:32;;;;;;;5.68;4.45;;;;;;;2.97;64.02;100695.56;5046822;28;20103;-62
2022/04/01 07:34:59;;;;;;;5.10;4.53;;;;;;;2.91;64.61;100698.09;5049119;28;20107;-61
2022/04/01 07:37:25;;;;;;;7.25;4.80;;;;;;;2.94;63.88;100697.66;5036630;28;20062;-61
2022/04/01 07:39:51;;;;;;;7.60;4.25;;;;;;;2.93;63.91;100706.09;5038719;28;20506;-62
2022/04/01 07:42:18;;;;;;;6.10;4.22;;;;;;;2.98;63.28;100710.97;5046661;28;20033;-62
2022/04/01 07:44:44;;;;;;;5.07;4.35;;;;;;;2.97;63.78;100712.88;5043671;28;20476;-62
2022/04/01 07:47:10;;;;;;;6.03;4.57;;;;;;;2.95;64.04;100717.72;5042872;28;20536;-62
2022/04/01 07:49:37;;;;;;;5.00;4.30;;;;;;;2.92;63.72;100713.50;5044167;28;20039;-61
2022/04/01 07:52:08;;;;;;;5.43;4.10;;;;;;;2.88;64.36;100725.09;5042698;28;20090;-62
2022/04/01 07:54:34;;;;;;;5.50;3.78;;;;;;;2.92;63.86;100726.34;5043472;28;20039;-61
2022/04/01 07:57:00;;;;;;;4.85;4.35;;;;;;;2.92;63.07;100729.94;5038384;28;20113;-63
2022/04/01 07:59:25;;;;;;;5.25;4.25;;;;;;;2.89;64.08;100727.59;5041470;28;20037;-63
2022/04/01 08:01:51;;;;;;;7.28;4.40;;;;;;;2.90;64.47;100728.44;5043663;28;20033;-64
2022/04/01 08:04:19;;;;;;;7.05;4.75;;;;;;;2.92;64.54;100727.19;5041314;28;20037;-64
2022/04/01 08:06:45;;;;;;;7.72;4.53;;;;;;;2.85;64.29;100741.94;5040025;28;20070;-64
2022/04/01 08:09:10;;;;;;;5.10;4.00;;;;;;;2.87;64.40;100737.06;5042730;28;20021;-64
2022/04/01 08:11:36;;;;;;;7.95;4.32;;;;;;;2.91;64.38;100736.47;5043639;28;20506;-65
2022/04/01 08:14:04;;;;;;;5.57;4.32;;;;;;;2.92;63.92;100743.66;5042429;28;20021;-66
2022/04/01 08:16:30;;;;;;;6.32;3.97;;;;;;;2.93;64.55;100741.75;5042840;28;20055;-64
2022/04/01 08:18:55;;;;;;;4.80;4.20;;;;;;;2.95;63.96;100750.63;5038281;28;20533;-62
2022/04/01 08:21:21;;;;;;;6.35;4.30;;;;;;;2.98;64.14;100752.94;5039882;28;20029;-62
2022/04/01 08:23:52;;;;;;;4.55;4.05;;;;;;;3.00;63.85;100750.84;5045649;28;20121;-64
2022/04/01 08:26:17;;;;;;;4.88;3.90;;;;;;;2.96;63.35;100763.28;5040011;28;20025;-64
2022/04/01 08:28:44;;;;;;;5.78;4.13;;;;;;;2.89;65.01;100759.66;5046759;28;20507;-63
2022/04/01 08:31:10;;;;;;;7.65;4.40;;;;;;;2.83;64.40;100777.78;5042421;28;20048;-62
2022/04/01 08:33:36;;;;;;;5.82;3.90;;;;;;;2.86;64.74;100771.03;5038187;28;20040;-63
2022/04/01 08:36:02;;;;;;;4.85;4.43;;;;;;;2.84;64.17;100775.88;5040339;28;20373;-64
2022/04/01 08:38:28;;;;;;;5.18;4.68;;;;;;;2.86;64.76;100779.25;5043106;28;20033;-63
2022/04/01 08:40:54;;;;;;;5.65;3.83;;;;;;;2.84;64.49;100790.44;5046610;28;20040;-63
2022/04/01 08:43:29;;;;;;;6.28;4.28;;;;;;;2.86;65.17;100806.66;5045442;28;20136;-63
2022/04/01 08:45:56;;;;;;;5.05;3.67;;;;;;;2.85;64.04;100800.34;5038289;28;20143;-63
2022/04/01 08:48:22;;;;;;;4.55;3.55;;;;;;;2.80;63.95;100802.00;5042362;28;20032;-62
2022/04/01 08:50:50;;;;;;;5.82;3.38;;;;;;;2.79;63.30;100801.19;5041270;28;20021;-61
2022/04/01 08:53:16;;;;;;;6.55;3.70;;;;;;;2.75;63.69;100812.72;5048024;28;20037;-62
2022/04/01 08:55:47;;;;;;;5.55;3.47;;;;;;;2.77;63.55;100806.00;5039672;28;20086;-62
2022/04/01 08:58:13;;;;;;;5.85;3.60;;;;;;;2.85;63.54;100815.94;5044190;28;20037;-62
2022/04/01 09:00:38;;;;;;;5.35;3.22;;;;;;;2.84;63.71;100817.84;5039300;28;20032;-62
2022/04/01 09:03:09;;;;;;;7.25;3.35;;;;;;;2.89;63.14;100822.72;5045588;28;20075;-63
2022/04/01 09:05:34;;;;;;;7.50;3.80;;;;;;;2.97;63.14;100827.19;5046121;28;20037;-62
2022/04/01 09:08:04;;;;;;;4.47;3.53;;;;;;;3.01;63.46;100828.47;5048770;28;20029;-62
2022/04/01 09:10:49;;;;;;;4.10;3.70;;;;;;;3.00;63.44;100822.13;5048850;28;20534;-62
2022/04/01 09:13:14;;;;;;;7.60;3.40;;;;;;;3.05;62.92;100836.06;5046540;28;20028;-62
2022/04/01 09:15:41;;;;;;;6.90;3.88;;;;;;;3.08;63.47;100830.19;5045580;28;20036;-63
2022/04/01 09:18:06;;;;;;;5.57;3.67;;;;;;;3.06;63.06;100832.28;5042631;28;20163;-64
2022/04/01 09:20:43;;;;;;;4.93;3.65;;;;;;;3.07;62.43;100844.13;5042159;28;20107;-63
2022/04/01 09:23:08;;;;;;;4.88;3.67;;;;;;;3.05;63.20;100840.72;5045515;28;20032;-62
2022/04/01 09:25:34;;;;;;;6.30;3.78;;;;;;;3.04;62.81;100848.09;5048668;28;20048;-62
2022/04/01 09:27:59;;;;;;;4.70;3.30;;;;;;;3.10;63.33;100854.66;5043241;28;20043;-62
2022/04/01 09:30:31;;;;;;;3.80;3.40;;;;;;;3.07;62.81;100853.19;5045027;28;20091;-63
2022/04/01 09:33:01;;;;;;;4.07;3.50;;;;;;;3.14;64.03;100856.81;5047725;28;20684;-62
2022/04/01 09:35:32;;;;;;;6.15;3.90;;;;;;;3.18;63.73;100852.59;5053222;28;20033;-63
2022/04/01 09:38:04;;;;;;;6.07;3.60;;;;;;;3.20;63.14;100863.34;5046030;28;20163;-62
2022/04/01 09:40:30;;;;;;;4.38;3.30;;;;;;;3.20;63.58;100858.72;5044852;28;20041;-63
2022/04/01 09:43:00;;;;;;;6.15;3.40;;;;;;;3.18;63.26;100862.69;5044732;28;20033;-64
2022/04/01 09:45:35;;;;;;;4.60;3.63;;;;;;;3.20;63.17;100861.44;5049861;28;20082;-64
2022/04/01 09:48:03;;;;;;;4.60;3.60;;;;;;;3.19;63.63;100868.00;5048154;28;20040;-64
2022/04/01 09:50:32;;;;;;;3.85;3.22;;;;;;;3.23;63.03;100870.34;5049905;28;20021;-63
2022/04/01 09:53:19;;;;;;;7.38;3.22;;;;;;;3.28;63.34;100868.66;5045772;28;20211;-63
2022/04/01 09:55:52;;;;;;;3.28;2.97;;;;;;;3.31;63.18;100861.94;5044399;28;20036;-64
2022/04/01 09:58:21;;;;;;;5.40;3.50;;;;;;;3.29;63.54;100867.59;5041150;28;20036;-64
2022/04/01 10:00:47;;;;;;;5.40;3.00;;;;;;;3.34;62.37;100872.47;5045315;28;20043;-63
2022/04/01 10:03:14;;;;;;;3.58;2.72;;;;;;;3.31;62.23;100871.00;5046528;28;20041;-63
2022/04/01 10:05:41;;;;;;;6.20;2.95;;;;;;;3.26;63.49;100870.75;5052740;28;20430;-64
2022/04/01 10:08:09;;;;;;;3.65;2.85;;;;;;;3.30;63.22;100874.81;5041469;28;20550;-63
2022/04/01 10:10:36;;;;;;;4.60;2.60;;;;;;;3.32;62.07;100874.59;5046347;28;20036;-62
2022/04/01 10:13:09;;;;;;;3.35;2.60;;;;;;;3.35;62.49;100879.66;5048667;28;20082;-63
2022/04/01 10:15:35;;;;;;;;;;;;;;;3.48;62.34;100865.97;5045297;28;20040;-64
2022/04/01 10:18:01;;;;;;;3.28;2.90;;;;;;;3.36;62.71;100876.72;5043186;28;19921;-63
2022/04/01 10:20:33;;;;;;;3.95;3.20;;;;;;;3.29;62.97;100875.84;5044920;28;20531;-63
2022/04/01 10:23:03;;;;;;;5.00;3.30;;;;;;;3.33;62.51;100876.28;5049080;28;20116;-64
2022/04/01 10:25:37;;;;;;;3.55;3.05;;;;;;;3.33;63.00;100873.53;5047010;28;20291;-64
2022/04/01 10:28:04;;;;;;;5.10;2.85;;;;;;;3.34;63.16;100872.47;5047403;28;20025;-63
2022/04/01 10:30:35;;;;;;;4.10;3.03;;;;;;;3.35;63.34;100876.94;5047063;28;20411;-63
2022/04/01 10:33:05;;;;;;;4.50;3.00;;;;;;;3.36;62.52;100882.19;5044724;28;20029;-62
2022/04/01 10:35:37;;;;;;;5.07;2.85;;;;;;;3.37;62.97;100881.13;5039682;28;20404;-63
2022/04/01 10:38:05;;;;;;;3.20;2.88;;;;;;;3.38;62.77;100874.63;5043946;28;20033;-63
2022/04/01 10:40:35;;;;;;;3.97;3.00;;;;;;;3.38;62.70;100873.75;5037666;28;20041;-63
2022/04/01 10:43:14;;;;;;;5.00;3.13;;;;;;;3.42;62.80;100877.81;5043198;28;20040;-63
2022/04/01 10:45:55;;;;;;;3.92;2.83;;;;;;;3.43;63.31;100883.06;5043829;28;20035;-65
2022/04/01 10:53:55;;;;;;;6.03;3.35;;;;;;;3.47;62.66;100885.41;5043486;28;20155;-67
2022/04/01 10:56:31;;;;;;;5.50;3.58;;;;;;;3.50;62.74;100891.34;5042631;28;20489;-64
2022/04/01 10:59:02;;;;;;;4.60;3.58;;;;;;;3.50;62.31;100899.56;5038219;28;20646;-64
2022/04/01 11:01:27;;;;;;;6.63;3.47;;;;;;;3.47;61.61;100899.97;5039241;28;20120;-64
2022/04/01 11:03:53;;;;;;;4.20;3.50;;;;;;;3.49;62.45;100897.84;5043251;28;20157;-65
2022/04/01 11:06:23;;;;;;;8.65;3.92;;;;;;;3.50;62.67;100899.56;5039366;28;20545;-63
2022/04/01 11:08:52;;;;;;;6.82;3.90;;;;;;;3.51;62.59;100905.91;5048371;28;20407;-63
2022/04/01 11:11:18;;;;;;;3.80;3.50;;;;;;;3.49;61.53;100908.84;5042567;28;20025;-64
2022/04/01 11:14:01;;;;;;;6.07;4.35;;;;;;;3.53;61.51;100904.63;5048761;28;20033;-64
2022/04/01 11:16:45;;;;;;;6.00;4.47;;;;;;;3.51;61.62;100911.38;5046623;28;20035;-65
2022/04/01 11:19:27;;;;;;;6.15;4.32;;;;;;;3.50;61.77;100917.91;5043841;28;20025;-62
2022/04/01 11:21:53;;;;;;;7.80;4.50;;;;;;;3.43;60.72;100912.41;5044011;28;20033;-62
2022/04/01 11:24:33;;;;;;;6.70;5.10;;;;;;;3.41;61.50;100917.25;5045403;28;20029;-63
2022/04/01 11:27:23;;;;;;;6.00;4.88;;;;;;;3.43;60.41;100921.50;5045432;28;20380;-61
2022/04/01 11:30:08;;;;;;;7.90;5.00;;;;;;;3.43;61.69;100926.97;5033212;28;20396;-61
2022/04/01 11:32:35;;;;;;;5.82;4.70;;;;;;;3.42;61.98;100918.97;5044724;28;20032;-63
2022/04/01 11:35:01;;;;;;;7.18;5.20;;;;;;;3.44;62.50;100920.44;5037649;28;20032;-62
2022/04/01 11:37:26;;;;;;;5.05;4.53;;;;;;;3.47;61.57;100921.09;5046231;28;20468;-63
2022/04/01 11:39:52;;;;;;;7.43;4.50;;;;;;;3.46;61.82;100928.47;5049576;28;20648;-62
2022/04/01 11:42:17;;;;;;;12.20;5.05;;;;;;;3.47;62.10;100929.31;5030802;28;20029;-62
2022/04/01 11:44:56;;;;;;;6.95;4.47;;;;;;;3.52;61.96;100919.41;5043769;28;20044;-62
2022/04/01 11:47:32;;;;;;;5.72;4.68;;;;;;;3.55;62.27;100924.50;5043586;28;20025;-64
2022/04/01 11:50:18;;;;;;;5.00;4.60;;;;;;;3.62;62.24;100921.78;5030869;28;20075;-62
2022/04/01 11:52:45;;;;;;;6.15;4.68;;;;;;;3.61;62.32;100918.16;5041120;28;20060;-63
2022/04/01 11:55:14;;;;;;;6.53;5.03;;;;;;;3.65;62.36;100927.69;5047610;28;20021;-62